createdAt,value
2023-07-24T00:00:51.635Z,0
2023-07-24T00:02:07.931Z,0
2023-07-24T00:03:24.215Z,0
2023-07-24T00:04:40.510Z,0
2023-07-24T00:05:56.810Z,0
2023-07-24T00:07:13.096Z,0
2023-07-24T00:08:29.399Z,0
2023-07-24T00:09:45.683Z,0
2023-07-24T00:11:01.976Z,0
2023-07-24T00:12:18.280Z,0
2023-07-24T00:13:34.582Z,0
2023-07-24T00:14:50.875Z,0
2023-07-24T00:16:07.163Z,0
2023-07-24T00:17:22.465Z,0
2023-07-24T00:18:38.782Z,0
2023-07-24T00:19:55.062Z,0
2023-07-24T00:21:11.347Z,0
2023-07-24T00:22:27.644Z,0
2023-07-24T00:23:43.935Z,0
2023-07-24T00:25:00.232Z,0
2023-07-24T00:26:16.521Z,0
2023-07-24T00:27:32.833Z,0
2023-07-24T00:28:49.109Z,0
2023-07-24T00:30:05.427Z,0
2023-07-24T00:32:37.983Z,0
2023-07-24T00:33:53.298Z,0
2023-07-24T00:35:09.587Z,0
2023-07-24T00:36:25.899Z,0
2023-07-24T00:37:42.188Z,0
2023-07-24T00:38:58.482Z,0
2023-07-24T00:40:14.766Z,0
2023-07-24T00:41:31.064Z,0
2023-07-24T00:42:47.367Z,0
2023-07-24T00:44:03.642Z,0
2023-07-24T00:45:19.940Z,0
2023-07-24T00:46:36.229Z,0
2023-07-24T00:47:52.526Z,0
2023-07-24T00:49:08.819Z,0
2023-07-24T00:50:24.117Z,0
2023-07-24T00:51:40.434Z,0
2023-07-24T00:52:56.726Z,0
2023-07-24T00:54:13.017Z,0
2023-07-24T00:55:29.303Z,0
2023-07-24T00:56:45.597Z,0
2023-07-24T00:58:01.896Z,0
2023-07-24T00:59:18.189Z,0
2023-07-24T01:00:34.480Z,0
2023-07-24T01:01:50.766Z,0
2023-07-24T01:03:07.069Z,0
2023-07-24T01:04:23.363Z,0
2023-07-24T01:05:39.651Z,0
2023-07-24T01:06:54.952Z,0
2023-07-24T01:08:11.246Z,0
2023-07-24T01:09:27.543Z,0
2023-07-24T01:10:43.836Z,0
2023-07-24T01:12:00.140Z,0
2023-07-24T01:13:16.431Z,0
2023-07-24T01:14:32.725Z,0
2023-07-24T01:15:49.029Z,0
2023-07-24T01:17:05.319Z,0
2023-07-24T01:18:21.615Z,0
2023-07-24T01:19:37.910Z,0
2023-07-24T01:20:54.189Z,0
2023-07-24T01:22:10.496Z,0
2023-07-24T01:23:25.800Z,0
2023-07-24T01:24:42.110Z,0
2023-07-24T01:25:58.388Z,0
2023-07-24T01:27:14.685Z,0
2023-07-24T01:28:30.979Z,0
2023-07-24T01:29:47.283Z,0
2023-07-24T01:31:03.558Z,0
2023-07-24T01:32:19.850Z,0
2023-07-24T01:33:36.153Z,0
2023-07-24T01:34:52.440Z,0
2023-07-24T01:36:08.735Z,0
2023-07-24T01:37:25.034Z,0
2023-07-24T01:38:41.331Z,0
2023-07-24T01:39:56.645Z,0
2023-07-24T01:41:12.918Z,0
2023-07-24T01:42:29.222Z,0
2023-07-24T01:43:45.527Z,0
2023-07-24T01:45:01.806Z,0
2023-07-24T01:46:18.113Z,0
2023-07-24T01:47:34.395Z,0
2023-07-24T01:48:50.697Z,0
2023-07-24T01:50:06.987Z,0
2023-07-24T01:51:23.286Z,0
2023-07-24T01:52:39.573Z,0
2023-07-24T01:53:55.868Z,0
2023-07-24T01:55:12.159Z,0
2023-07-24T01:56:27.480Z,0
2023-07-24T01:57:43.762Z,0
2023-07-24T01:59:00.047Z,0
2023-07-24T02:00:16.367Z,0
2023-07-24T02:01:32.635Z,0
2023-07-24T02:02:48.946Z,0
2023-07-24T02:04:05.229Z,0
2023-07-24T02:05:21.518Z,0
2023-07-24T02:06:37.830Z,0
2023-07-24T02:07:54.106Z,0
2023-07-24T02:09:10.406Z,0
2023-07-24T02:10:26.707Z,0
2023-07-24T02:11:43.005Z,0
2023-07-24T02:12:58.298Z,0
2023-07-24T02:14:14.603Z,0
2023-07-24T02:15:30.000Z,0
2023-07-24T02:16:47.187Z,0
2023-07-24T02:18:03.485Z,0
2023-07-24T02:19:19.781Z,0
2023-07-24T02:20:36.066Z,0
2023-07-24T02:21:52.375Z,0
2023-07-24T02:23:08.645Z,0
2023-07-24T02:24:24.955Z,0
2023-07-24T02:25:41.246Z,0
2023-07-24T02:26:57.544Z,0
2023-07-24T02:28:13.827Z,0
2023-07-24T02:29:29.140Z,0
2023-07-24T02:30:45.000Z,0
2023-07-24T02:32:01.734Z,0
2023-07-24T02:33:18.029Z,0
2023-07-24T02:34:34.317Z,0
2023-07-24T02:35:50.607Z,0
2023-07-24T02:37:06.905Z,0
2023-07-24T02:38:23.193Z,0
2023-07-24T02:39:39.485Z,0
2023-07-24T02:40:55.781Z,0
2023-07-24T02:42:12.080Z,0
2023-07-24T02:43:28.372Z,0
2023-07-24T02:44:44.670Z,0
2023-07-24T02:45:59.986Z,0
2023-07-24T02:47:16.268Z,0
2023-07-24T02:48:32.514Z,1
2023-07-24T02:49:48.797Z,0
2023-07-24T02:51:05.095Z,0
2023-07-24T02:52:21.344Z,1
2023-07-24T02:53:37.582Z,1
2023-07-24T02:54:53.818Z,1
2023-07-24T02:56:10.075Z,1
2023-07-24T02:57:26.318Z,2
2023-07-24T02:58:42.566Z,2
2023-07-24T02:59:58.810Z,2
2023-07-24T03:01:15.031Z,3
2023-07-24T03:02:30.290Z,2
2023-07-24T03:03:46.532Z,2
2023-07-24T03:05:02.780Z,3
2023-07-24T03:06:19.016Z,4
2023-07-24T03:07:35.249Z,9
2023-07-24T03:08:51.500Z,8
2023-07-24T03:10:07.743Z,10
2023-07-24T03:11:23.972Z,9
2023-07-24T03:12:40.220Z,5
2023-07-24T03:13:56.462Z,9
2023-07-24T03:15:12.697Z,11
2023-07-24T03:16:28.927Z,19
2023-07-24T03:17:45.169Z,23
2023-07-24T03:19:00.441Z,26
2023-07-24T03:20:16.658Z,26
2023-07-24T03:21:32.902Z,34
2023-07-24T03:22:49.142Z,39
2023-07-24T03:24:05.391Z,42
2023-07-24T03:25:21.626Z,48
2023-07-24T03:26:37.873Z,59
2023-07-24T03:27:54.113Z,61
2023-07-24T03:29:10.358Z,68
2023-07-24T03:30:26.583Z,75
2023-07-24T03:31:42.837Z,80
2023-07-24T03:32:59.066Z,86
2023-07-24T03:34:15.310Z,91
2023-07-24T03:35:30.559Z,99
2023-07-24T03:36:46.811Z,110
2023-07-24T03:38:03.041Z,113
2023-07-24T03:39:19.288Z,125
2023-07-24T03:40:35.517Z,131
2023-07-24T03:41:51.773Z,152
2023-07-24T03:43:07.994Z,165
2023-07-24T03:44:24.247Z,175
2023-07-24T03:45:40.482Z,187
2023-07-24T03:46:56.730Z,204
2023-07-24T03:48:12.959Z,220
2023-07-24T03:49:29.194Z,238
2023-07-24T03:50:45.447Z,257
2023-07-24T03:52:00.707Z,274
2023-07-24T03:53:16.941Z,293
2023-07-24T03:54:33.181Z,309
2023-07-24T03:55:49.411Z,318
2023-07-24T03:57:05.657Z,329
2023-07-24T03:58:21.887Z,332
2023-07-24T03:59:38.135Z,380
2023-07-24T04:00:54.373Z,397
2023-07-24T04:02:10.613Z,383
2023-07-24T04:03:26.857Z,362
2023-07-24T04:04:43.095Z,401
2023-07-24T04:05:59.327Z,392
2023-07-24T04:07:15.578Z,416
2023-07-24T04:08:30.840Z,444
2023-07-24T04:09:47.066Z,403
2023-07-24T04:11:03.302Z,473
2023-07-24T04:12:19.550Z,496
2023-07-24T04:13:35.788Z,469
2023-07-24T04:14:52.039Z,484
2023-07-24T04:16:07.288Z,492
2023-07-24T04:17:23.527Z,501
2023-07-24T04:18:39.764Z,500
2023-07-24T04:19:56.019Z,511
2023-07-24T04:21:12.252Z,523
2023-07-24T04:22:28.493Z,538
2023-07-24T04:23:44.726Z,555
2023-07-24T04:25:00.963Z,564
2023-07-24T04:26:17.211Z,564
2023-07-24T04:27:33.445Z,495
2023-07-24T04:28:49.689Z,597
2023-07-24T04:30:05.936Z,595
2023-07-24T04:31:22.172Z,574
2023-07-24T04:32:37.422Z,665
2023-07-24T04:33:53.661Z,710
2023-07-24T04:35:09.911Z,904
2023-07-24T04:36:26.145Z,656
2023-07-24T04:37:42.382Z,815
2023-07-24T04:38:58.623Z,890
2023-07-24T04:40:14.864Z,847
2023-07-24T04:41:31.097Z,826
2023-07-24T04:42:47.338Z,1206
2023-07-24T04:44:03.577Z,1194
2023-07-24T04:45:19.830Z,1038
2023-07-24T04:46:36.061Z,919
2023-07-24T04:47:52.298Z,997
2023-07-24T04:49:07.566Z,1124
2023-07-24T04:50:23.810Z,1391
2023-07-24T04:51:40.036Z,985
2023-07-24T04:52:56.271Z,1245
2023-07-24T04:54:12.511Z,1107
2023-07-24T04:55:28.760Z,1104
2023-07-24T04:56:44.994Z,1029
2023-07-24T04:58:01.247Z,1749
2023-07-24T04:59:17.488Z,1361
2023-07-24T05:00:33.714Z,1240
2023-07-24T05:01:49.967Z,1210
2023-07-24T05:03:06.192Z,1223
2023-07-24T05:04:22.444Z,1242
2023-07-24T05:05:37.704Z,1214
2023-07-24T05:06:53.939Z,431
2023-07-24T05:08:10.174Z,1405
2023-07-24T05:09:26.407Z,1035
2023-07-24T05:10:42.647Z,1216
2023-07-24T05:11:58.892Z,1707
2023-07-24T05:13:15.125Z,1273
2023-07-24T05:14:31.380Z,1468
2023-07-24T05:15:47.618Z,1478
2023-07-24T05:17:03.848Z,1411
2023-07-24T05:18:20.087Z,1269
2023-07-24T05:19:36.339Z,1398
2023-07-24T05:20:52.565Z,1776
2023-07-24T05:22:07.827Z,2528
2023-07-24T05:23:24.060Z,1739
2023-07-24T05:24:40.301Z,2704
2023-07-24T05:25:56.543Z,887
2023-07-24T05:28:29.033Z,2093
2023-07-24T05:29:45.000Z,1138
2023-07-24T05:31:01.508Z,2708
2023-07-24T05:32:17.758Z,2536
2023-07-24T05:33:33.988Z,1959
2023-07-24T05:34:50.227Z,3084
2023-07-24T05:36:06.465Z,2746
2023-07-24T05:37:22.710Z,1612
2023-07-24T05:38:37.962Z,1753
2023-07-24T05:39:54.199Z,2727
2023-07-24T05:41:10.437Z,2450
2023-07-24T05:42:26.681Z,2672
2023-07-24T05:43:42.918Z,3028
2023-07-24T05:44:59.168Z,2415
2023-07-24T05:46:15.407Z,2994
2023-07-24T05:47:31.635Z,2519
2023-07-24T05:48:47.887Z,2489
2023-07-24T05:50:04.124Z,2591
2023-07-24T05:51:20.361Z,2890
2023-07-24T05:52:36.597Z,2854
2023-07-24T05:53:52.834Z,2971
2023-07-24T05:55:08.092Z,3022
2023-07-24T05:56:24.331Z,2502
2023-07-24T05:57:40.569Z,2456
2023-07-24T05:58:56.822Z,2807
2023-07-24T06:00:13.054Z,2991
2023-07-24T06:01:29.292Z,2961
2023-07-24T06:02:45.526Z,2817
2023-07-24T06:04:01.768Z,3072
2023-07-24T06:05:18.014Z,2388
2023-07-24T06:06:34.256Z,2767
2023-07-24T06:07:50.488Z,2611
2023-07-24T06:09:06.740Z,3017
2023-07-24T06:10:22.982Z,3265
2023-07-24T06:11:38.224Z,3275
2023-07-24T06:12:54.473Z,3360
2023-07-24T06:14:10.702Z,3738
2023-07-24T06:15:26.958Z,3678
2023-07-24T06:16:43.184Z,3255
2023-07-24T06:17:59.438Z,3272
2023-07-24T06:19:15.663Z,3408
2023-07-24T06:20:31.905Z,3350
2023-07-24T06:21:48.142Z,3731
2023-07-24T06:23:04.396Z,3836
2023-07-24T06:24:20.627Z,4045
2023-07-24T06:25:36.870Z,4258
2023-07-24T06:26:53.101Z,5490
2023-07-24T06:28:08.373Z,3974
2023-07-24T06:29:24.595Z,4644
2023-07-24T06:30:40.838Z,3873
2023-07-24T06:31:57.083Z,3762
2023-07-24T06:33:13.317Z,4371
2023-07-24T06:34:29.562Z,3691
2023-07-24T06:35:45.798Z,4317
2023-07-24T06:37:02.049Z,4651
2023-07-24T06:38:18.273Z,4608
2023-07-24T06:39:34.512Z,5112
2023-07-24T06:40:50.764Z,5197
2023-07-24T06:42:07.010Z,5417
2023-07-24T06:43:23.241Z,5311
2023-07-24T06:44:38.495Z,3720
2023-07-24T06:45:54.731Z,4983
2023-07-24T06:47:10.980Z,4882
2023-07-24T06:48:27.211Z,4824
2023-07-24T06:49:43.453Z,6465
2023-07-24T06:50:59.700Z,4918
2023-07-24T06:52:15.931Z,4110
2023-07-24T06:53:32.174Z,4209
2023-07-24T06:54:48.428Z,4296
2023-07-24T06:56:04.646Z,4339
2023-07-24T06:57:20.896Z,4822
2023-07-24T06:58:37.137Z,5196
2023-07-24T06:59:53.368Z,5181
2023-07-24T07:01:08.627Z,4897
2023-07-24T07:02:24.865Z,4463
2023-07-24T07:03:41.113Z,5147
2023-07-24T07:04:57.352Z,4577
2023-07-24T07:06:13.591Z,5221
2023-07-24T07:07:29.828Z,4209
2023-07-24T07:08:46.064Z,6398
2023-07-24T07:10:02.304Z,3754
2023-07-24T07:11:18.555Z,4621
2023-07-24T07:12:34.785Z,5222
2023-07-24T07:13:51.018Z,3497
2023-07-24T07:15:07.257Z,6383
2023-07-24T07:16:23.513Z,6387
2023-07-24T07:17:38.753Z,4230
2023-07-24T07:18:55.001Z,5242
2023-07-24T07:20:11.231Z,2972
2023-07-24T07:21:27.489Z,2331
2023-07-24T07:22:43.711Z,2104
2023-07-24T07:23:59.959Z,2281
2023-07-24T07:25:16.200Z,2571
2023-07-24T07:26:32.434Z,2769
2023-07-24T07:27:48.671Z,3093
2023-07-24T07:29:04.917Z,3178
2023-07-24T07:30:21.155Z,5053
2023-07-24T07:31:37.390Z,3967
2023-07-24T07:32:53.647Z,5699
2023-07-24T07:34:08.897Z,5344
2023-07-24T07:35:25.132Z,5705
2023-07-24T07:36:41.367Z,6160
2023-07-24T07:37:57.615Z,5933
2023-07-24T07:39:13.859Z,6519
2023-07-24T07:40:30.090Z,6571
2023-07-24T07:41:46.327Z,6245
2023-07-24T07:43:02.561Z,6330
2023-07-24T07:44:18.809Z,6246
2023-07-24T07:45:35.060Z,6373
2023-07-24T07:46:51.293Z,6534
2023-07-24T07:48:07.522Z,6627
2023-07-24T07:49:23.770Z,7314
2023-07-24T07:50:39.020Z,6565
2023-07-24T07:51:55.259Z,7707
2023-07-24T07:53:11.518Z,5446
2023-07-24T07:54:27.743Z,7449
2023-07-24T07:55:43.986Z,7879
2023-07-24T07:57:00.225Z,5718
2023-07-24T07:58:16.454Z,4931
2023-07-24T07:59:32.703Z,3057
2023-07-24T08:00:48.937Z,4997
2023-07-24T08:02:05.190Z,6127
2023-07-24T08:03:21.424Z,5025
2023-07-24T08:04:37.660Z,4374
2023-07-24T08:05:53.900Z,4448
2023-07-24T08:07:09.156Z,4094
2023-07-24T08:08:25.400Z,4227
2023-07-24T08:09:41.636Z,4220
2023-07-24T08:10:57.894Z,4064
2023-07-24T08:12:14.110Z,4833
2023-07-24T08:13:30.354Z,4833
2023-07-24T08:14:46.594Z,4696
2023-07-24T08:16:02.842Z,4743
2023-07-24T08:17:19.079Z,4749
2023-07-24T08:18:35.315Z,5230
2023-07-24T08:19:51.554Z,5602
2023-07-24T08:21:07.000Z,6213
2023-07-24T08:22:24.025Z,5768
2023-07-24T08:23:40.391Z,5492
2023-07-24T08:24:56.651Z,5997
2023-07-24T08:26:12.876Z,5967
2023-07-24T08:27:29.104Z,6308
2023-07-24T08:28:45.363Z,6007
2023-07-24T08:30:01.604Z,5899
2023-07-24T08:31:16.844Z,5440
2023-07-24T08:32:33.097Z,5932
2023-07-24T08:33:49.329Z,5966
2023-07-24T08:35:05.573Z,6093
2023-07-24T08:36:21.813Z,6295
2023-07-24T08:38:54.289Z,6119
2023-07-24T08:40:10.532Z,5575
2023-07-24T08:41:26.766Z,5854
2023-07-24T08:42:43.010Z,6115
2023-07-24T08:43:59.261Z,5465
2023-07-24T08:45:15.496Z,5707
2023-07-24T08:46:31.739Z,5239
2023-07-24T08:47:46.997Z,5831
2023-07-24T08:49:03.232Z,5854
2023-07-24T08:50:19.465Z,5177
2023-07-24T08:51:35.698Z,5199
2023-07-24T08:52:51.953Z,4432
2023-07-24T08:54:08.181Z,4451
2023-07-24T08:55:24.422Z,4275
2023-07-24T08:56:40.671Z,4603
2023-07-24T08:57:56.916Z,4806
2023-07-24T08:59:13.146Z,5534
2023-07-24T09:00:29.382Z,6489
2023-07-24T09:01:45.623Z,8296
2023-07-24T09:03:01.861Z,8264
2023-07-24T09:04:17.129Z,6430
2023-07-24T09:05:33.353Z,8243
2023-07-24T09:06:49.603Z,7041
2023-07-24T09:08:05.839Z,7928
2023-07-24T09:09:22.091Z,5282
2023-07-24T09:10:38.312Z,5506
2023-07-24T09:11:54.570Z,6730
2023-07-24T09:13:10.807Z,7706
2023-07-24T09:14:27.039Z,6446
2023-07-24T09:15:43.293Z,8358
2023-07-24T09:16:59.528Z,9202
2023-07-24T09:18:15.759Z,7005
2023-07-24T09:19:32.004Z,7085
2023-07-24T09:20:48.371Z,5752
2023-07-24T09:22:04.612Z,4904
2023-07-24T09:23:20.847Z,5031
2023-07-24T09:24:37.078Z,4284
2023-07-24T09:25:53.319Z,6088
2023-07-24T09:27:09.564Z,4986
2023-07-24T09:28:25.802Z,4954
2023-07-24T09:29:42.029Z,4856
2023-07-24T09:30:58.299Z,4560
2023-07-24T09:32:14.518Z,4208
2023-07-24T09:33:30.759Z,3924
2023-07-24T09:34:46.989Z,3859
2023-07-24T09:36:03.227Z,3541
2023-07-24T09:37:18.484Z,4734
2023-07-24T09:38:34.740Z,4771
2023-07-24T09:39:50.968Z,6621
2023-07-24T09:41:07.223Z,5791
2023-07-24T09:42:23.465Z,4355
2023-07-24T09:43:39.691Z,6174
2023-07-24T09:44:55.933Z,5372
2023-07-24T09:46:12.177Z,5385
2023-07-24T09:47:28.402Z,6720
2023-07-24T09:48:44.656Z,5034
2023-07-24T09:50:00.910Z,4584
2023-07-24T09:51:17.126Z,4360
2023-07-24T09:52:33.362Z,5069
2023-07-24T09:53:48.617Z,3501
2023-07-24T09:55:04.864Z,2568
2023-07-24T09:56:21.121Z,2188
2023-07-24T09:57:37.345Z,1518
2023-07-24T09:58:53.578Z,1144
2023-07-24T10:00:09.815Z,900
2023-07-24T10:01:26.055Z,748
2023-07-24T10:02:42.315Z,724
2023-07-24T10:03:58.554Z,847
2023-07-24T10:05:14.792Z,1054
2023-07-24T10:06:31.034Z,1299
2023-07-24T10:07:47.259Z,3531
2023-07-24T10:09:03.496Z,4833
2023-07-24T10:10:18.749Z,5546
2023-07-24T10:11:35.008Z,4882
2023-07-24T10:12:51.245Z,3643
2023-07-24T10:14:07.483Z,3355
2023-07-24T10:15:23.714Z,3435
2023-07-24T10:16:39.950Z,3123
2023-07-24T10:17:56.217Z,3302
2023-07-24T10:19:12.430Z,6035
2023-07-24T10:20:28.690Z,6368
2023-07-24T10:21:44.915Z,7995
2023-07-24T10:23:01.149Z,8327
2023-07-24T10:24:17.402Z,8347
2023-07-24T10:25:33.658Z,5172
2023-07-24T10:26:48.896Z,7652
2023-07-24T10:28:05.144Z,6892
2023-07-24T10:29:21.383Z,6991
2023-07-24T10:30:37.609Z,6079
2023-07-24T10:31:53.848Z,8122
2023-07-24T10:33:10.083Z,5997
2023-07-24T10:34:26.321Z,6025
2023-07-24T10:35:42.575Z,4507
2023-07-24T10:36:58.798Z,3401
2023-07-24T10:38:15.046Z,7233
2023-07-24T10:39:31.282Z,5096
2023-07-24T10:40:47.526Z,5125
2023-07-24T10:42:03.777Z,7152
2023-07-24T10:43:19.018Z,5405
2023-07-24T10:44:35.269Z,8120
2023-07-24T10:45:51.494Z,5983
2023-07-24T10:47:07.733Z,5753
2023-07-24T10:48:23.975Z,5416
2023-07-24T10:49:40.231Z,7656
2023-07-24T10:50:56.456Z,6683
2023-07-24T10:52:12.690Z,6124
2023-07-24T10:53:28.962Z,6845
2023-07-24T10:54:45.188Z,6688
2023-07-24T10:56:01.413Z,6356
2023-07-24T10:57:17.666Z,5856
2023-07-24T10:58:33.916Z,5416
2023-07-24T10:59:49.144Z,5199
2023-07-24T11:01:05.401Z,4736
2023-07-24T11:02:21.626Z,5036
2023-07-24T11:03:37.863Z,4856
2023-07-24T11:04:54.117Z,4757
2023-07-24T11:06:10.351Z,4897
2023-07-24T11:08:42.842Z,6101
2023-07-24T11:09:59.082Z,5876
2023-07-24T11:11:15.302Z,6076
2023-07-24T11:12:31.543Z,5847
2023-07-24T11:13:47.796Z,5799
2023-07-24T11:15:04.029Z,6068
2023-07-24T11:16:19.296Z,6155
2023-07-24T11:17:35.522Z,6016
2023-07-24T11:18:51.760Z,5823
2023-07-24T11:20:08.007Z,5890
2023-07-24T11:21:24.241Z,5870
2023-07-24T11:22:40.492Z,5698
2023-07-24T11:23:56.717Z,5875
2023-07-24T11:25:12.964Z,5910
2023-07-24T11:26:29.208Z,5217
2023-07-24T11:27:45.443Z,5398
2023-07-24T11:29:01.709Z,4876
2023-07-24T11:30:17.923Z,5238
2023-07-24T11:31:34.160Z,5385
2023-07-24T11:32:49.414Z,5370
2023-07-24T11:34:05.658Z,5271
2023-07-24T11:35:21.892Z,5355
2023-07-24T11:36:38.159Z,5290
2023-07-24T11:37:54.371Z,5133
2023-07-24T11:39:10.621Z,5280
2023-07-24T11:40:26.852Z,5238
2023-07-24T11:41:43.093Z,4777
2023-07-24T11:42:59.339Z,4389
2023-07-24T11:44:15.586Z,4095
2023-07-24T11:45:31.810Z,4311
2023-07-24T11:46:48.065Z,3785
2023-07-24T11:48:04.290Z,3700
2023-07-24T11:49:19.560Z,3447
2023-07-24T11:50:35.795Z,3337
2023-07-24T11:51:52.038Z,3194
2023-07-24T11:53:08.270Z,3278
2023-07-24T11:54:24.516Z,3599
2023-07-24T11:55:40.744Z,3335
2023-07-24T11:56:56.990Z,3072
2023-07-24T11:58:13.257Z,2836
2023-07-24T11:59:29.467Z,2852
2023-07-24T12:00:45.708Z,2792
2023-07-24T12:02:01.968Z,2845
2023-07-24T12:03:18.188Z,2774
2023-07-24T12:04:34.436Z,3108
2023-07-24T12:05:50.661Z,2957
2023-07-24T12:07:05.917Z,3153
2023-07-24T12:08:22.167Z,3179
2023-07-24T12:09:38.401Z,3973
2023-07-24T12:10:54.650Z,3942
2023-07-24T12:12:10.887Z,4286
2023-07-24T12:13:27.129Z,4622
2023-07-24T12:14:43.389Z,5030
2023-07-24T12:15:59.609Z,5270
2023-07-24T12:17:15.850Z,5041
2023-07-24T12:18:32.084Z,5630
2023-07-24T12:19:48.318Z,5924
2023-07-24T12:21:04.562Z,6040
2023-07-24T12:22:20.806Z,5716
2023-07-24T12:23:37.165Z,5364
2023-07-24T12:24:53.403Z,5746
2023-07-24T12:26:09.632Z,5607
2023-07-24T12:27:25.883Z,5745
2023-07-24T12:28:42.111Z,6241
2023-07-24T12:29:58.357Z,6502
2023-07-24T12:31:14.589Z,6053
2023-07-24T12:32:30.837Z,4616
2023-07-24T12:33:47.083Z,4471
2023-07-24T12:35:03.316Z,6834
2023-07-24T12:36:19.581Z,5768
2023-07-24T12:37:35.817Z,5107
2023-07-24T12:38:52.035Z,4707
2023-07-24T12:40:07.292Z,4747
2023-07-24T12:41:23.524Z,4618
2023-07-24T12:42:39.777Z,4254
2023-07-24T12:43:56.009Z,4083
2023-07-24T12:45:12.269Z,3649
2023-07-24T12:46:27.512Z,3046
2023-07-24T12:47:43.747Z,4048
2023-07-24T12:48:59.984Z,2897
2023-07-24T12:50:16.229Z,2216
2023-07-24T12:51:32.470Z,2416
2023-07-24T12:52:48.732Z,1704
2023-07-24T12:54:04.971Z,3835
2023-07-24T12:55:21.194Z,3867
2023-07-24T12:57:53.664Z,4831
2023-07-24T12:59:09.903Z,4427
2023-07-24T13:00:26.145Z,4611
2023-07-24T13:01:42.412Z,4633
2023-07-24T13:02:57.663Z,4978
2023-07-24T13:04:13.878Z,4366
2023-07-24T13:05:30.138Z,4825
2023-07-24T13:06:46.356Z,4464
2023-07-24T13:08:02.609Z,4743
2023-07-24T13:09:18.835Z,4244
2023-07-24T13:10:35.085Z,4188
2023-07-24T13:11:51.339Z,4056
2023-07-24T13:13:07.568Z,4323
2023-07-24T13:14:23.800Z,4766
2023-07-24T13:15:40.040Z,4457
2023-07-24T13:16:56.277Z,4242
2023-07-24T13:18:12.523Z,3858
2023-07-24T13:19:27.774Z,4101
2023-07-24T13:20:44.011Z,3916
2023-07-24T13:22:00.256Z,3730
2023-07-24T13:23:16.490Z,3482
2023-07-24T13:24:32.738Z,3588
2023-07-24T13:25:48.974Z,3650
2023-07-24T13:27:05.221Z,3639
2023-07-24T13:28:21.452Z,3679
2023-07-24T13:29:37.720Z,3575
2023-07-24T13:30:53.950Z,3463
2023-07-24T13:32:10.179Z,3994
2023-07-24T13:33:26.421Z,3657
2023-07-24T13:34:42.650Z,3765
2023-07-24T13:35:57.911Z,3308
2023-07-24T13:37:14.159Z,3630
2023-07-24T13:38:30.406Z,3960
2023-07-24T13:39:46.647Z,3616
2023-07-24T13:41:02.866Z,3736
2023-07-24T13:42:19.104Z,3417
2023-07-24T13:43:35.342Z,3618
2023-07-24T13:44:51.583Z,3648
2023-07-24T13:46:07.826Z,3689
2023-07-24T13:47:24.070Z,3338
2023-07-24T13:48:40.302Z,3809
2023-07-24T13:49:56.539Z,4279
2023-07-24T13:51:12.786Z,4074
2023-07-24T13:52:28.045Z,4803
2023-07-24T13:53:44.276Z,4283
2023-07-24T13:55:00.522Z,4544
2023-07-24T13:56:16.762Z,4161
2023-07-24T13:57:33.022Z,4101
2023-07-24T13:58:49.233Z,4009
2023-07-24T14:00:05.499Z,3996
2023-07-24T14:01:21.717Z,3970
2023-07-24T14:02:37.955Z,3841
2023-07-24T14:03:54.190Z,3846
2023-07-24T14:05:10.450Z,3683
2023-07-24T14:06:26.672Z,3914
2023-07-24T14:07:42.941Z,3510
2023-07-24T14:08:58.182Z,3794
2023-07-24T14:10:14.426Z,3684
2023-07-24T14:11:30.646Z,3697
2023-07-24T14:12:46.917Z,3974
2023-07-24T14:14:03.157Z,3741
2023-07-24T14:15:19.403Z,3793
2023-07-24T14:16:35.608Z,3522
2023-07-24T14:17:51.856Z,3745
2023-07-24T14:19:08.085Z,3745
2023-07-24T14:20:24.326Z,3292
2023-07-24T14:21:40.591Z,3204
2023-07-24T14:22:56.831Z,2987
2023-07-24T14:24:13.050Z,3043
2023-07-24T14:25:28.328Z,3194
2023-07-24T14:26:44.551Z,3065
2023-07-24T14:28:00.776Z,3195
2023-07-24T14:29:17.033Z,3121
2023-07-24T14:30:33.297Z,3133
2023-07-24T14:31:49.508Z,3527
2023-07-24T14:33:05.754Z,3205
2023-07-24T14:34:22.011Z,3016
2023-07-24T14:35:38.247Z,3191
2023-07-24T14:36:54.472Z,3145
2023-07-24T14:38:10.699Z,3152
2023-07-24T14:39:26.936Z,3458
2023-07-24T14:40:43.180Z,3311
2023-07-24T14:41:58.437Z,3345
2023-07-24T14:43:14.687Z,3255
2023-07-24T14:44:30.923Z,3185
2023-07-24T14:45:47.163Z,3172
2023-07-24T14:47:03.407Z,3273
2023-07-24T14:48:19.643Z,2492
2023-07-24T14:49:35.867Z,3524
2023-07-24T14:50:52.121Z,4004
2023-07-24T14:52:08.358Z,3936
2023-07-24T14:53:24.588Z,3190
2023-07-24T14:54:40.827Z,3337
2023-07-24T14:55:57.072Z,3769
2023-07-24T14:57:13.308Z,4005
2023-07-24T14:58:28.572Z,3468
2023-07-24T14:59:44.804Z,2399
2023-07-24T15:01:01.041Z,3123
2023-07-24T15:02:17.289Z,3549
2023-07-24T15:03:33.532Z,2541
2023-07-24T15:04:49.759Z,3496
2023-07-24T15:06:06.031Z,3285
2023-07-24T15:07:22.238Z,2719
2023-07-24T15:08:38.514Z,3197
2023-07-24T15:09:54.747Z,3390
2023-07-24T15:11:10.990Z,3399
2023-07-24T15:12:27.226Z,2768
2023-07-24T15:13:43.441Z,3246
2023-07-24T15:14:58.708Z,3657
2023-07-24T15:16:14.949Z,3449
2023-07-24T15:17:31.208Z,3556
2023-07-24T15:18:47.443Z,3579
2023-07-24T15:20:03.684Z,3489
2023-07-24T15:21:19.895Z,3523
2023-07-24T15:22:36.149Z,3353
2023-07-24T15:23:52.388Z,3346
2023-07-24T15:25:08.624Z,3122
2023-07-24T15:26:24.850Z,3032
2023-07-24T15:27:41.095Z,3163
2023-07-24T15:28:57.330Z,2963
2023-07-24T15:30:13.582Z,2940
2023-07-24T15:32:45.073Z,2463
2023-07-24T15:34:01.316Z,3286
2023-07-24T15:35:17.550Z,2103
2023-07-24T15:36:33.796Z,1860
2023-07-24T15:37:50.031Z,3271
2023-07-24T15:39:06.282Z,2166
2023-07-24T15:40:22.508Z,2554
2023-07-24T15:41:38.778Z,2698
2023-07-24T15:42:54.995Z,1843
2023-07-24T15:44:11.237Z,2540
2023-07-24T15:45:27.466Z,1837
2023-07-24T15:46:43.717Z,1708
2023-07-24T15:47:58.958Z,1617
2023-07-24T15:49:15.215Z,1584
2023-07-24T15:50:31.469Z,1637
2023-07-24T15:51:47.692Z,682
2023-07-24T15:53:03.925Z,2423
2023-07-24T15:54:20.159Z,1228
2023-07-24T15:55:36.398Z,1936
2023-07-24T15:56:52.669Z,2011
2023-07-24T15:58:08.875Z,2034
2023-07-24T15:59:25.115Z,1922
2023-07-24T16:00:41.375Z,2327
2023-07-24T16:01:57.609Z,1107
2023-07-24T16:03:13.839Z,2165
2023-07-24T16:04:29.103Z,1620
2023-07-24T16:05:45.364Z,1700
2023-07-24T16:07:01.617Z,1495
2023-07-24T16:08:17.818Z,894
2023-07-24T16:09:34.055Z,1864
2023-07-24T16:10:50.332Z,1852
2023-07-24T16:12:06.546Z,2342
2023-07-24T16:13:22.770Z,1754
2023-07-24T16:14:39.028Z,1569
2023-07-24T16:15:55.262Z,1485
2023-07-24T16:17:11.502Z,1433
2023-07-24T16:18:27.763Z,1367
2023-07-24T16:19:43.968Z,1338
2023-07-24T16:20:59.257Z,1293
2023-07-24T16:22:15.471Z,1296
2023-07-24T16:23:31.713Z,1280
2023-07-24T16:24:47.981Z,1176
2023-07-24T16:26:04.218Z,1046
2023-07-24T16:27:20.457Z,1579
2023-07-24T16:28:36.710Z,1400
2023-07-24T16:29:52.907Z,1350
2023-07-24T16:31:09.178Z,862
2023-07-24T16:32:25.397Z,1755
2023-07-24T16:33:41.624Z,1500
2023-07-24T16:34:57.860Z,1338
2023-07-24T16:36:14.102Z,1281
2023-07-24T16:37:29.367Z,1131
2023-07-24T16:38:45.627Z,1168
2023-07-24T16:40:01.837Z,819
2023-07-24T16:41:18.073Z,1222
2023-07-24T16:42:34.320Z,1094
2023-07-24T16:43:50.558Z,1344
2023-07-24T16:45:06.792Z,1312
2023-07-24T16:46:23.032Z,1217
2023-07-24T16:47:39.289Z,1145
2023-07-24T16:48:55.509Z,990
2023-07-24T16:50:11.750Z,1259
2023-07-24T16:51:27.992Z,1266
2023-07-24T16:52:44.235Z,1268
2023-07-24T16:53:59.494Z,1210
2023-07-24T16:55:15.760Z,1227
2023-07-24T16:56:31.976Z,1174
2023-07-24T16:57:48.255Z,1094
2023-07-24T16:59:04.461Z,1019
2023-07-24T17:00:20.694Z,972
2023-07-24T17:01:35.953Z,913
2023-07-24T17:02:52.200Z,912
2023-07-24T17:04:08.426Z,852
2023-07-24T17:05:24.682Z,860
2023-07-24T17:06:40.907Z,905
2023-07-24T17:07:57.154Z,917
2023-07-24T17:09:13.382Z,996
2023-07-24T17:11:45.871Z,924
2023-07-24T17:13:02.108Z,904
2023-07-24T17:14:18.354Z,885
2023-07-24T17:15:34.583Z,848
2023-07-24T17:16:50.825Z,786
2023-07-24T17:18:07.225Z,725
2023-07-24T17:19:23.474Z,639
2023-07-24T17:20:39.660Z,535
2023-07-24T17:21:55.942Z,571
2023-07-24T17:23:12.142Z,469
2023-07-24T17:24:28.389Z,451
2023-07-24T17:25:44.634Z,441
2023-07-24T17:27:00.866Z,378